Time;durP1;ratioP1;P1;durP2;ratioP2;P2;SDS_P1;SDS_P2;PMS_P1;PMS_P2;Temp;Humidity;BMP_temperature;BMP_pressure;BME280_temperature;BME280_humidity;BME280_pressure;Samples;Min_cycle;Max_cycle;Signal;HPM_P1;HPM_P2
2023/08/18 00:04:14;;;;;;;15.95;9.75;;;;;;;21.62;78.55;97678.13;10370892;28;20032;-55
2023/08/18 00:09:13;;;;;;;10.98;9.85;;;;;;;21.64;78.42;97678.88;10364702;28;20119;-55
2023/08/18 00:14:12;;;;;;;14.07;10.07;;;;;;;21.60;78.15;97672.91;10372129;28;20116;-55
2023/08/18 00:19:11;;;;;;;11.35;10.15;;;;;;;21.63;77.82;97685.13;10370584;28;20068;-56
2023/08/18 00:24:10;;;;;;;14.10;11.05;;;;;;;21.62;78.05;97684.25;10370303;28;20064;-55
2023/08/18 00:29:09;;;;;;;12.48;10.52;;;;;;;21.37;78.49;97636.16;10368638;28;20037;-55
2023/08/18 00:34:08;;;;;;;11.60;10.02;;;;;;;21.54;78.55;97681.09;10364074;28;20544;-55
2023/08/18 00:39:07;;;;;;;14.43;11.23;;;;;;;21.50;79.14;97676.88;10371133;28;20838;-55
2023/08/18 00:44:05;;;;;;;11.80;10.05;;;;;;;21.38;80.23;97678.31;10364728;28;20048;-53
2023/08/18 00:49:08;;;;;;;13.38;10.65;;;;;;;21.37;80.08;97663.41;10371777;28;20025;-55
2023/08/18 00:54:07;;;;;;;13.05;10.65;;;;;;;21.23;80.19;97647.34;10368201;28;20053;-55
2023/08/18 00:59:07;;;;;;;13.07;10.23;;;;;;;21.32;80.61;97681.25;10358675;28;20112;-55
2023/08/18 01:04:06;;;;;;;10.85;9.75;;;;;;;20.87;82.66;97682.34;10364788;28;20060;-55
2023/08/18 01:09:06;;;;;;;12.02;10.82;;;;;;;20.41;83.95;97648.25;10366048;28;20057;-55
2023/08/18 01:14:08;;;;;;;11.50;10.30;;;;;;;20.61;83.82;97684.34;10365669;28;20120;-55
2023/08/18 01:19:13;;;;;;;15.00;11.35;;;;;;;20.68;83.01;97682.25;10369019;28;20133;-55
2023/08/18 01:24:12;;;;;;;13.35;10.38;;;;;;;20.77;82.28;97678.38;10368345;28;20453;-55
2023/08/18 01:29:11;;;;;;;11.68;10.50;;;;;;;20.82;81.69;97679.03;10369310;28;20460;-55
2023/08/18 01:34:15;;;;;;;13.15;10.70;;;;;;;20.78;81.64;97678.34;10366957;28;20063;-55
2023/08/18 01:39:18;;;;;;;13.38;11.15;;;;;;;20.78;81.50;97674.84;10367540;28;20064;-55
2023/08/18 01:44:18;;;;;;;12.10;10.65;;;;;;;20.73;81.36;97671.53;10366058;28;20555;-55
2023/08/18 01:49:17;;;;;;;14.55;11.55;;;;;;;20.66;81.65;97685.00;10368402;28;20079;-55
2023/08/18 01:54:16;;;;;;;18.02;12.90;;;;;;;20.58;82.21;97675.69;10365117;28;20075;-55
2023/08/18 01:59:15;;;;;;;14.07;12.35;;;;;;;20.49;83.14;97669.00;10367842;28;20033;-55
2023/08/18 02:04:14;;;;;;;14.50;12.05;;;;;;;20.41;83.34;97666.72;10368642;28;20035;-56
2023/08/18 02:09:13;;;;;;;14.35;11.68;;;;;;;20.38;83.30;97664.19;10364037;28;20029;-56
2023/08/18 02:14:12;;;;;;;17.15;12.65;;;;;;;20.32;83.56;97656.53;10367185;28;20071;-54
2023/08/18 02:19:11;;;;;;;13.82;12.23;;;;;;;20.24;84.29;97654.22;10368682;28;20025;-55
2023/08/18 02:24:10;;;;;;;14.40;12.85;;;;;;;20.18;84.86;97657.09;10365699;28;20031;-54
2023/08/18 02:29:09;;;;;;;16.33;12.35;;;;;;;20.15;85.16;97659.00;10369027;28;20048;-54
2023/08/18 02:34:08;;;;;;;13.52;12.13;;;;;;;20.07;84.70;97648.78;10367461;28;20131;-54
2023/08/18 02:39:07;;;;;;;13.98;12.07;;;;;;;20.03;84.76;97645.41;10367246;28;20032;-54
2023/08/18 02:44:06;;;;;;;13.27;11.88;;;;;;;19.62;84.94;97586.53;10361654;28;20063;-56
2023/08/18 02:49:05;;;;;;;15.95;12.52;;;;;;;19.91;84.68;97637.13;10367336;28;20104;-55
2023/08/18 02:54:04;;;;;;;17.33;12.95;;;;;;;19.86;84.94;97640.84;10367683;28;20064;-56
2023/08/18 02:59:03;;;;;;;16.77;12.60;;;;;;;19.57;84.99;97593.75;10366563;28;20117;-56
2023/08/18 03:04:02;;;;;;;15.95;12.52;;;;;;;19.77;85.08;97637.72;10366757;28;20111;-56
2023/08/18 03:09:02;;;;;;;18.48;12.52;;;;;;;19.75;85.31;97645.69;10373919;28;20104;-56
2023/08/18 03:14:01;;;;;;;13.82;12.40;;;;;;;19.70;85.60;97644.13;10374640;28;20072;-56
2023/08/18 03:19:00;;;;;;;18.83;13.55;;;;;;;19.69;85.38;97648.53;10372709;28;20029;-53
2023/08/18 03:23:59;;;;;;;16.75;12.70;;;;;;;19.66;85.69;97640.78;10373476;28;20566;-56
2023/08/18 03:28:57;;;;;;;13.63;12.25;;;;;;;19.60;85.82;97641.00;10369339;28;20767;-56
2023/08/18 03:33:56;;;;;;;21.77;13.02;;;;;;;19.60;86.07;97649.78;10372498;28;20937;-56
2023/08/18 03:38:55;;;;;;;16.40;13.55;;;;;;;19.61;86.27;97663.78;10374148;28;20108;-56
2023/08/18 03:43:54;;;;;;;19.58;13.88;;;;;;;19.59;86.53;97665.63;10372964;28;20053;-56
2023/08/18 03:48:53;;;;;;;19.50;12.70;;;;;;;19.37;87.89;97670.78;10371908;28;20120;-54
2023/08/18 03:53:52;;;;;;;16.27;13.32;;;;;;;19.40;87.27;97674.19;10370066;28;20073;-53
2023/08/18 03:58:52;;;;;;;16.13;12.95;;;;;;;19.45;86.82;97672.22;10370858;28;20037;-54
2023/08/18 04:03:51;;;;;;;15.38;13.73;;;;;;;19.42;86.92;97680.25;10372242;28;20068;-54
2023/08/18 04:09:04;;;;;;;15.10;13.50;;;;;;;19.36;86.80;97667.31;10372920;28;20039;-56
2023/08/18 04:14:03;;;;;;;19.27;12.63;;;;;;;19.19;88.45;97698.66;10371784;28;20057;-53
2023/08/18 04:19:03;;;;;;;16.13;13.68;;;;;;;18.37;90.59;97635.78;10368480;28;20043;-54
2023/08/18 04:24:02;;;;;;;17.15;13.80;;;;;;;18.78;90.55;97703.63;10371297;28;20072;-54
2023/08/18 04:29:02;;;;;;;16.60;14.57;;;;;;;18.84;90.11;97682.38;10368686;28;20120;-54
2023/08/18 04:34:01;;;;;;;18.70;14.20;;;;;;;19.01;90.26;97708.91;10367847;28;20060;-54
2023/08/18 04:39:00;;;;;;;19.50;14.43;;;;;;;19.19;89.79;97719.72;10369505;28;20155;-54
2023/08/18 04:43:59;;;;;;;17.90;14.50;;;;;;;19.26;89.83;97721.19;10368353;28;20064;-54
2023/08/18 04:48:58;;;;;;;16.67;12.85;;;;;;;19.38;89.75;97725.16;10369496;28;20023;-54
2023/08/18 04:53:57;;;;;;;14.80;12.75;;;;;;;19.29;89.45;97675.50;10364653;28;20035;-54
2023/08/18 04:58:56;;;;;;;17.55;13.77;;;;;;;19.77;88.68;97728.09;10366459;28;20037;-54
2023/08/18 05:03:57;;;;;;;15.55;13.38;;;;;;;19.93;88.03;97728.38;10366053;28;20024;-54
2023/08/18 05:08:56;;;;;;;18.48;13.85;;;;;;;20.14;86.71;97723.16;10369357;28;20057;-54
2023/08/18 05:13:56;;;;;;;17.02;13.65;;;;;;;20.17;86.41;97721.25;10365209;28;20072;-55
2023/08/18 05:18:55;;;;;;;15.70;13.63;;;;;;;20.36;85.77;97720.53;10366094;28;20069;-55
2023/08/18 05:23:54;;;;;;;21.27;15.65;;;;;;;20.37;85.36;97709.88;10365605;28;20063;-55
2023/08/18 05:28:53;;;;;;;20.83;14.40;;;;;;;20.63;85.16;97724.69;10367506;28;20053;-55
2023/08/18 05:33:52;;;;;;;16.77;12.77;;;;;;;20.91;84.11;97715.56;10363247;28;20036;-55
2023/08/18 05:38:51;;;;;;;19.25;14.02;;;;;;;21.09;82.60;97727.97;10368794;28;20041;-55
2023/08/18 05:43:50;;;;;;;15.90;14.20;;;;;;;21.19;82.06;97738.09;10361375;28;20076;-55
2023/08/18 05:48:49;;;;;;;17.00;14.02;;;;;;;21.31;81.63;97737.59;10363637;28;20017;-55
2023/08/18 05:53:48;;;;;;;19.80;14.30;;;;;;;21.54;81.06;97736.56;10364777;28;20107;-55
2023/08/18 05:58:47;;;;;;;14.75;13.25;;;;;;;21.84;79.24;97739.56;10366304;28;20025;-55
2023/08/18 06:03:46;;;;;;;37.67;15.50;;;;;;;22.08;78.04;97737.56;10364435;28;20036;-55
2023/08/18 06:08:45;;;;;;;20.48;13.77;;;;;;;22.29;76.75;97742.78;10362302;28;20059;-55
2023/08/18 06:13:44;;;;;;;18.00;13.40;;;;;;;22.55;75.51;97736.19;10367414;28;20017;-55
2023/08/18 06:18:42;;;;;;;19.52;12.15;;;;;;;22.66;74.69;97741.81;10367099;28;20043;-55
2023/08/18 06:23:41;;;;;;;21.63;13.25;;;;;;;22.74;73.32;97744.09;10365100;28;20492;-55
2023/08/18 06:28:40;;;;;;;21.00;13.55;;;;;;;22.95;74.33;97737.72;10362888;28;20448;-55
2023/08/18 06:33:39;;;;;;;17.27;12.63;;;;;;;23.21;72.58;97738.16;10361909;28;20480;-55
2023/08/18 06:38:38;;;;;;;19.50;13.90;;;;;;;23.38;72.76;97747.88;10368724;28;20036;-55
2023/08/18 06:43:37;;;;;;;18.60;12.65;;;;;;;23.60;69.15;97745.78;10364689;28;20106;-55
2023/08/18 06:48:36;;;;;;;18.30;12.13;;;;;;;23.78;68.75;97740.44;10366313;28;20024;-55
2023/08/18 06:53:35;;;;;;;16.83;12.80;;;;;;;23.97;66.70;97754.38;10368048;28;20037;-55
2023/08/18 06:58:34;;;;;;;16.48;10.65;;;;;;;24.22;65.07;97747.78;10350319;28;20426;-55
2023/08/18 07:03:33;;;;;;;15.55;11.13;;;;;;;24.27;63.39;97719.19;10362138;28;20496;-55
2023/08/18 07:08:32;;;;;;;14.98;10.20;;;;;;;24.69;62.04;97757.44;10358346;28;20547;-56
2023/08/18 07:13:31;;;;;;;28.20;10.93;;;;;;;24.83;61.08;97741.56;10364948;28;20056;-55
2023/08/18 07:18:30;;;;;;;13.07;9.30;;;;;;;25.06;59.08;97740.22;10354412;28;20029;-55
2023/08/18 07:23:29;;;;;;;11.00;9.13;;;;;;;25.30;58.92;97737.88;10363810;28;20116;-55
2023/08/18 07:28:28;;;;;;;9.82;8.23;;;;;;;25.37;57.05;97732.19;10361508;28;20053;-55
2023/08/18 07:33:27;;;;;;;12.15;8.25;;;;;;;25.51;54.49;97734.84;10359403;28;20072;-55
2023/08/18 07:38:26;;;;;;;14.10;8.82;;;;;;;25.53;54.45;97733.81;10358888;28;20041;-55
2023/08/18 07:43:26;;;;;;;12.40;8.50;;;;;;;25.74;54.18;97742.28;10350931;28;20049;-55
2023/08/18 07:48:25;;;;;;;11.65;9.00;;;;;;;25.83;52.20;97716.94;10362064;28;20124;-55
2023/08/18 07:53:26;;;;;;;11.27;7.95;;;;;;;26.14;53.20;97723.78;10366508;28;20527;-55
2023/08/18 07:58:25;;;;;;;11.20;7.88;;;;;;;26.45;52.19;97731.59;10367287;28;20131;-55
2023/08/18 08:03:24;;;;;;;14.27;8.43;;;;;;;26.74;52.02;97727.81;10369776;28;20040;-56
2023/08/18 08:08:23;;;;;;;14.43;8.60;;;;;;;26.92;51.36;97714.28;10362601;28;20108;-56
2023/08/18 08:13:22;;;;;;;12.27;8.60;;;;;;;27.00;50.75;97717.25;10370590;28;20028;-56
2023/08/18 08:18:21;;;;;;;10.05;8.02;;;;;;;27.09;49.98;97699.78;10352146;28;20104;-56
2023/08/18 08:23:20;;;;;;;9.55;8.30;;;;;;;27.22;49.39;97705.97;10370305;28;20036;-56
2023/08/18 08:28:19;;;;;;;12.95;8.60;;;;;;;27.23;48.95;97706.81;10370583;28;20582;-56
2023/08/18 08:33:17;;;;;;;10.90;7.90;;;;;;;27.21;48.43;97709.59;10358873;28;20031;-56
2023/08/18 08:38:17;;;;;;;9.57;7.35;;;;;;;27.02;46.94;97664.72;10370373;28;20029;-55
2023/08/18 08:43:16;;;;;;;8.82;6.97;;;;;;;27.37;46.29;97702.22;10363056;28;20120;-59
2023/08/18 08:48:18;;;;;;;11.40;7.85;;;;;;;27.39;46.60;97668.34;10367121;28;20048;-57
2023/08/18 08:53:39;;;;;;;9.38;6.70;;;;;;;27.70;44.11;97705.31;10362611;28;20060;-57
2023/08/18 08:58:38;;;;;;;19.02;8.25;;;;;;;27.77;44.72;97709.25;10363058;28;20064;-54
2023/08/18 09:03:39;;;;;;;13.93;7.72;;;;;;;27.68;45.13;97678.78;10363148;28;20112;-54
2023/08/18 09:08:38;;;;;;;10.77;7.30;;;;;;;27.86;45.84;97697.91;10360899;28;20068;-55
2023/08/18 09:13:39;;;;;;;9.10;7.38;;;;;;;28.07;44.89;97692.00;10364118;28;20060;-55
2023/08/18 09:18:38;;;;;;;128.10;19.92;;;;;;;28.27;45.18;97672.72;10366834;28;20053;-55
2023/08/18 09:23:37;;;;;;;117.78;19.42;;;;;;;28.33;44.72;97687.41;10365008;28;20029;-55
2023/08/18 09:28:36;;;;;;;8.93;6.88;;;;;;;28.50;44.95;97692.38;10360939;28;20064;-55
2023/08/18 09:33:35;;;;;;;19.35;8.48;;;;;;;28.78;45.27;97682.25;10362733;28;20032;-55
2023/08/18 09:38:42;;;;;;;11.23;6.70;;;;;;;28.92;43.53;97666.03;10345431;28;20109;-55
2023/08/18 09:43:43;;;;;;;9.20;7.47;;;;;;;29.08;44.15;97679.91;10350820;28;20084;-55
2023/08/18 09:48:48;;;;;;;8.82;6.72;;;;;;;28.95;44.30;97686.34;10342026;28;20179;-55
2023/08/18 09:54:02;;;;;;;9.43;6.53;;;;;;;28.86;45.22;97682.53;10351199;28;20120;-55
2023/08/18 09:59:25;;;;;;;7.75;6.38;;;;;;;28.66;43.93;97631.50;10358597;28;20117;-56
2023/08/18 10:04:25;;;;;;;7.32;6.28;;;;;;;28.87;44.47;97684.22;10366899;28;20116;-56
2023/08/18 10:09:27;;;;;;;8.63;6.90;;;;;;;29.00;44.80;97670.78;10357080;28;20045;-56
2023/08/18 10:14:27;;;;;;;8.50;6.57;;;;;;;29.08;44.44;97671.88;10354504;28;20106;-56
2023/08/18 10:19:50;;;;;;;12.02;6.78;;;;;;;29.37;43.93;97670.59;10355205;28;20160;-56
2023/08/18 10:24:50;;;;;;;9.40;6.68;;;;;;;29.74;43.11;97673.84;10355321;28;20498;-56
2023/08/18 10:29:49;;;;;;;9.65;7.00;;;;;;;30.09;42.69;97654.97;10337244;28;20064;-56
2023/08/18 10:34:50;;;;;;;10.68;7.00;;;;;;;30.25;42.45;97659.88;10347709;28;20112;-55
2023/08/18 10:39:52;;;;;;;9.10;6.75;;;;;;;30.50;41.43;97673.97;10363391;28;20112;-56
2023/08/18 10:45:03;;;;;;;8.18;7.05;;;;;;;30.69;40.33;97658.03;10357691;28;20076;-56
2023/08/18 10:50:04;;;;;;;7.47;6.07;;;;;;;30.80;39.93;97675.88;10341566;28;20796;-56
2023/08/18 10:55:05;;;;;;;7.78;5.80;;;;;;;31.05;39.65;97671.09;10345312;28;20052;-56
2023/08/18 11:00:11;;;;;;;7.55;6.60;;;;;;;30.90;40.58;97665.22;10363697;28;20124;-56
2023/08/18 11:05:11;;;;;;;10.52;6.40;;;;;;;31.09;39.70;97664.50;10348064;28;20111;-56
2023/08/18 11:10:21;;;;;;;8.60;6.40;;;;;;;31.09;39.20;97657.31;10355175;28;20097;-56
2023/08/18 11:15:21;;;;;;;7.63;5.95;;;;;;;31.27;38.73;97648.66;10360604;28;20068;-56
2023/08/18 11:20:21;;;;;;;8.82;6.10;;;;;;;31.38;37.97;97649.44;10363167;28;20496;-56
2023/08/18 11:25:22;;;;;;;7.70;5.32;;;;;;;31.51;38.04;97637.63;10349432;28;20129;-56
2023/08/18 11:30:22;;;;;;;7.85;5.50;;;;;;;31.65;37.01;97641.78;10357334;28;20065;-56
2023/08/18 11:35:21;;;;;;;10.52;5.93;;;;;;;31.25;37.26;97643.44;10372827;28;20060;-56
2023/08/18 11:40:22;;;;;;;6.75;5.70;;;;;;;31.10;37.07;97639.41;10362252;28;20772;-56
2023/08/18 11:45:24;;;;;;;6.53;5.30;;;;;;;31.35;37.39;97630.06;10362687;28;20096;-57
2023/08/18 11:50:39;;;;;;;6.20;5.20;;;;;;;31.53;36.08;97631.16;10368702;28;20481;-56
2023/08/18 11:55:40;;;;;;;8.07;5.30;;;;;;;31.62;36.26;97609.88;10364017;28;20551;-56
2023/08/18 12:00:41;;;;;;;7.00;5.07;;;;;;;31.91;35.71;97604.53;10369664;28;20186;-56
2023/08/18 12:05:40;;;;;;;7.00;5.18;;;;;;;32.42;35.64;97609.66;10364202;28;20152;-57
2023/08/18 12:10:40;;;;;;;7.68;5.72;;;;;;;32.74;34.23;97619.28;10349048;28;20111;-57
2023/08/18 12:15:39;;;;;;;9.52;5.45;;;;;;;32.75;34.18;97620.97;10334431;28;20536;-56
2023/08/18 12:20:38;;;;;;;6.13;5.13;;;;;;;32.42;34.21;97617.72;10335470;28;20121;-56
2023/08/18 12:25:38;;;;;;;9.00;5.93;;;;;;;32.22;34.50;97611.53;10365631;28;20057;-57
2023/08/18 12:30:37;;;;;;;8.90;5.80;;;;;;;32.33;34.30;97607.00;10365267;28;20104;-56
2023/08/18 12:35:36;;;;;;;8.70;5.38;;;;;;;32.21;34.16;97601.75;10365579;28;20048;-56
2023/08/18 12:40:35;;;;;;;8.43;5.72;;;;;;;32.59;33.73;97608.13;10365110;28;20032;-57
2023/08/18 12:45:34;;;;;;;9.18;5.40;;;;;;;32.70;33.52;97604.44;10369398;28;20425;-57
2023/08/18 12:50:33;;;;;;;8.68;5.97;;;;;;;32.41;33.68;97612.50;10370858;28;20071;-57
2023/08/18 12:55:32;;;;;;;8.02;5.40;;;;;;;32.37;33.72;97592.31;10361690;28;20026;-56
2023/08/18 13:00:31;;;;;;;7.68;5.78;;;;;;;32.45;33.99;97588.88;10366300;28;20600;-58
2023/08/18 13:05:30;;;;;;;6.65;5.20;;;;;;;32.78;33.29;97595.63;10359423;28;20122;-57
2023/08/18 13:10:29;;;;;;;7.65;6.32;;;;;;;32.49;33.36;97585.78;10363101;28;20025;-57
2023/08/18 13:15:29;;;;;;;8.52;5.10;;;;;;;32.73;33.70;97590.69;10367928;28;20063;-57
2023/08/18 13:20:28;;;;;;;8.50;5.18;;;;;;;33.06;32.82;97578.56;10354017;28;20053;-57
2023/08/18 13:25:32;;;;;;;9.38;5.30;;;;;;;32.70;33.30;97590.16;10363258;28;20110;-57
2023/08/18 13:30:31;;;;;;;9.13;5.57;;;;;;;32.80;33.49;97583.75;10401286;28;20087;-56
2023/08/18 13:35:30;;;;;;;9.55;5.75;;;;;;;32.80;32.53;97556.88;10366582;28;20060;-56
2023/08/18 13:40:30;;;;;;;6.40;5.50;;;;;;;32.53;32.39;97538.84;10362491;28;20119;-56
2023/08/18 13:45:29;;;;;;;9.07;5.65;;;;;;;32.80;32.32;97547.97;10365193;28;20072;-56
2023/08/18 13:50:28;;;;;;;7.95;5.35;;;;;;;32.88;31.96;97574.97;10339472;28;20115;-56
2023/08/18 13:55:27;;;;;;;6.57;5.50;;;;;;;32.63;31.99;97544.22;10356850;28;20068;-56
2023/08/18 14:00:26;;;;;;;6.38;4.88;;;;;;;32.88;32.09;97568.72;10365747;28;20024;-56
2023/08/18 14:05:25;;;;;;;8.05;5.15;;;;;;;32.86;31.66;97560.84;10367572;28;20178;-57
2023/08/18 14:10:24;;;;;;;8.00;5.20;;;;;;;32.91;32.10;97571.16;10350129;28;20142;-56
2023/08/18 14:15:23;;;;;;;7.70;5.45;;;;;;;32.67;32.15;97540.25;10349865;28;20144;-56
2023/08/18 14:20:22;;;;;;;7.63;4.78;;;;;;;32.65;31.82;97577.16;10367164;28;20056;-56
2023/08/18 14:25:21;;;;;;;6.88;5.32;;;;;;;32.46;33.22;97574.44;10359590;28;20033;-56
2023/08/18 14:30:20;;;;;;;9.63;4.90;;;;;;;32.61;32.61;97570.38;10360928;28;20067;-56
2023/08/18 14:35:19;;;;;;;7.35;5.47;;;;;;;32.57;32.91;97564.44;10361592;28;20507;-57
2023/08/18 14:40:18;;;;;;;10.45;5.55;;;;;;;32.28;32.66;97553.72;10346899;28;20507;-58
2023/08/18 14:45:18;;;;;;;7.03;5.05;;;;;;;32.10;33.20;97561.63;10330578;28;20051;-57
2023/08/18 14:50:17;;;;;;;8.98;5.90;;;;;;;32.07;33.81;97547.66;10353991;28;20539;-57
2023/08/18 14:55:16;;;;;;;7.35;5.28;;;;;;;32.03;33.89;97554.25;10343051;28;20076;-57
2023/08/18 15:00:15;;;;;;;10.95;6.47;;;;;;;31.99;33.47;97541.13;10358421;28;20497;-57
2023/08/18 15:05:16;;;;;;;9.20;6.00;;;;;;;31.72;33.41;97514.16;10367860;28;20068;-57
2023/08/18 15:10:15;;;;;;;7.45;5.57;;;;;;;31.78;33.45;97543.09;10366645;28;20053;-57
2023/08/18 15:15:14;;;;;;;7.03;5.40;;;;;;;31.43;33.37;97552.47;10349531;28;20025;-57
2023/08/18 15:20:13;;;;;;;8.82;5.70;;;;;;;31.45;33.80;97550.50;10367657;28;20044;-57
2023/08/18 15:25:12;;;;;;;8.68;6.07;;;;;;;31.46;34.52;97549.50;10370665;28;20165;-57
2023/08/18 15:30:13;;;;;;;8.50;5.80;;;;;;;31.34;34.20;97538.06;10371641;28;20142;-57
2023/08/18 15:35:12;;;;;;;11.45;5.75;;;;;;;31.17;34.49;97523.47;10373127;28;20052;-57
2023/08/18 15:40:11;;;;;;;8.80;6.10;;;;;;;31.34;35.06;97547.94;10366919;28;20049;-57
2023/08/18 15:45:10;;;;;;;11.93;7.07;;;;;;;31.33;35.30;97555.09;10372797;28;20076;-57
2023/08/18 15:50:09;;;;;;;10.90;5.90;;;;;;;31.28;34.39;97538.59;10365052;28;20112;-57
2023/08/18 15:55:08;;;;;;;8.35;5.75;;;;;;;31.34;35.04;97550.63;10372369;28;20104;-57
2023/08/18 16:00:08;;;;;;;12.82;5.80;;;;;;;31.30;35.14;97533.09;10367338;28;20040;-57
2023/08/18 16:05:07;;;;;;;13.85;6.20;;;;;;;31.13;36.00;97535.44;10369219;28;20056;-57
2023/08/18 16:10:07;;;;;;;13.65;10.80;;;;;;;31.28;35.70;97543.94;10367011;28;20060;-57
2023/08/18 16:15:06;;;;;;;10.20;7.57;;;;;;;31.36;36.04;97549.50;10370677;28;20484;-57
2023/08/18 16:20:08;;;;;;;12.07;6.97;;;;;;;30.71;35.89;97463.19;10364405;28;20550;-57
2023/08/18 16:25:07;;;;;;;8.85;6.28;;;;;;;30.97;35.54;97513.66;10363992;28;20087;-57
2023/08/18 16:30:07;;;;;;;13.77;6.82;;;;;;;30.95;36.08;97554.00;10366900;28;20057;-57
2023/08/18 16:35:06;;;;;;;12.73;7.53;;;;;;;30.66;36.07;97519.00;10367399;28;20060;-57
2023/08/18 16:40:06;;;;;;;12.27;7.40;;;;;;;30.88;35.84;97557.31;10364668;28;20132;-57
2023/08/18 16:45:05;;;;;;;23.50;12.93;;;;;;;30.75;36.66;97528.94;10344580;28;20563;-57
2023/08/18 16:50:05;;;;;;;10.65;6.72;;;;;;;30.84;36.63;97559.41;10342080;28;20456;-56
2023/08/18 16:55:04;;;;;;;8.77;5.70;;;;;;;30.67;35.81;97574.25;10356905;28;20112;-56
2023/08/18 17:00:04;;;;;;;10.45;6.20;;;;;;;30.40;36.74;97561.44;10347504;28;20684;-57
2023/08/18 17:05:03;;;;;;;10.35;7.28;;;;;;;30.33;36.73;97566.41;10357528;28;20056;-56
2023/08/18 17:10:02;;;;;;;11.93;7.18;;;;;;;30.15;37.59;97567.97;10354189;28;20112;-56
2023/08/18 17:15:01;;;;;;;9.20;7.47;;;;;;;29.91;38.82;97582.41;10368189;28;20104;-56
2023/08/18 17:20:00;;;;;;;14.77;11.32;;;;;;;29.24;38.81;97537.91;10362491;28;20112;-56
2023/08/18 17:24:59;;;;;;;22.48;11.48;;;;;;;29.23;39.36;97597.69;10367815;28;20060;-56
2023/08/18 17:29:59;;;;;;;12.68;9.15;;;;;;;29.04;40.18;97595.63;10345522;28;20029;-56
2023/08/18 17:34:57;;;;;;;16.17;8.75;;;;;;;28.87;41.47;97604.09;10353137;28;20060;-56
2023/08/18 17:39:56;;;;;;;17.67;9.13;;;;;;;28.57;42.53;97602.81;10342612;28;20033;-57
2023/08/18 17:44:55;;;;;;;12.93;8.48;;;;;;;28.25;43.16;97603.44;10351822;28;20129;-56
2023/08/18 17:49:54;;;;;;;11.30;8.73;;;;;;;28.02;44.05;97612.28;10363212;28;20021;-56
2023/08/18 17:54:53;;;;;;;11.75;7.93;;;;;;;27.75;44.36;97612.50;10364413;28;20071;-56
2023/08/18 17:59:52;;;;;;;13.20;7.95;;;;;;;27.34;45.49;97598.53;10365702;28;20041;-56
2023/08/18 18:04:53;;;;;;;12.18;8.90;;;;;;;27.30;46.42;97638.81;10365819;28;20487;-56
2023/08/18 18:09:52;;;;;;;14.63;9.00;;;;;;;27.02;47.12;97639.91;10362341;28;20060;-56
2023/08/18 18:14:51;;;;;;;13.63;8.88;;;;;;;26.90;47.31;97650.47;10365914;28;20029;-56
2023/08/18 18:19:50;;;;;;;10.55;8.60;;;;;;;26.80;47.79;97668.00;10354362;28;20208;-56
2023/08/18 18:24:49;;;;;;;11.68;9.20;;;;;;;26.69;47.99;97667.88;10359020;28;20031;-56
2023/08/18 18:29:48;;;;;;;11.95;9.27;;;;;;;26.60;49.09;97673.81;10347269;28;20843;-56
2023/08/18 18:34:47;;;;;;;10.88;8.45;;;;;;;26.46;49.44;97672.94;10360309;28;20626;-56
2023/08/18 18:39:46;;;;;;;11.50;9.05;;;;;;;26.34;49.71;97673.75;10356239;28;20096;-56
2023/08/18 18:44:45;;;;;;;9.77;8.55;;;;;;;26.07;50.73;97663.97;10359089;28;20063;-56
2023/08/18 18:49:44;;;;;;;10.88;8.75;;;;;;;26.03;50.77;97675.75;10365911;28;20021;-56
2023/08/18 18:54:43;;;;;;;13.82;8.63;;;;;;;25.80;52.31;97673.72;10365246;28;20502;-56
2023/08/18 18:59:42;;;;;;;10.20;8.57;;;;;;;25.67;52.07;97687.81;10362308;28;20718;-56
2023/08/18 19:04:41;;;;;;;10.15;8.43;;;;;;;25.35;52.47;97646.44;10359801;28;20060;-55
2023/08/18 19:09:40;;;;;;;17.85;13.05;;;;;;;25.47;52.68;97681.03;10364472;28;20066;-56
2023/08/18 19:14:40;;;;;;;12.20;9.80;;;;;;;25.33;53.34;97684.56;10357512;28;20068;-56
2023/08/18 19:19:39;;;;;;;14.32;9.70;;;;;;;25.23;53.83;97683.44;10340468;28;20594;-56
2023/08/18 19:24:38;;;;;;;10.13;8.93;;;;;;;24.96;54.66;97677.16;10359650;28;20094;-55
2023/08/18 19:29:37;;;;;;;14.07;9.80;;;;;;;24.95;54.97;97681.59;10362271;28;20021;-56
2023/08/18 19:34:36;;;;;;;11.70;9.45;;;;;;;24.87;54.98;97681.19;10359753;28;20033;-56
2023/08/18 19:39:35;;;;;;;12.48;8.85;;;;;;;24.83;55.07;97698.25;10353826;28;20480;-56
2023/08/18 19:44:34;;;;;;;14.45;10.13;;;;;;;24.78;55.37;97698.53;10353324;28;20187;-55
2023/08/18 19:49:33;;;;;;;12.98;9.57;;;;;;;24.69;55.76;97699.06;10364361;28;20112;-56
2023/08/18 19:54:32;;;;;;;11.52;9.40;;;;;;;24.60;56.17;97711.06;10367535;28;20102;-56
2023/08/18 19:59:31;;;;;;;13.07;9.15;;;;;;;24.54;56.45;97707.91;10367644;28;20165;-55
2023/08/18 20:04:30;;;;;;;10.13;8.52;;;;;;;24.47;56.76;97705.63;10369133;28;20129;-55
2023/08/18 20:09:29;;;;;;;13.93;8.43;;;;;;;24.41;56.69;97710.44;10358909;28;20760;-55
2023/08/18 20:14:28;;;;;;;11.98;9.40;;;;;;;24.18;57.17;97682.59;10370319;28;20458;-55
2023/08/18 20:19:27;;;;;;;12.40;9.07;;;;;;;24.26;57.24;97717.47;10365647;28;20450;-55
2023/08/18 20:24:27;;;;;;;12.98;10.15;;;;;;;24.08;59.52;97707.91;10363443;28;20819;-55
2023/08/18 20:29:26;;;;;;;15.13;10.35;;;;;;;24.00;61.08;97716.25;10366974;28;20052;-55
2023/08/18 20:34:25;;;;;;;16.33;11.98;;;;;;;23.83;61.96;97715.41;10365453;28;20028;-55
2023/08/18 20:39:23;;;;;;;16.30;11.52;;;;;;;23.67;63.29;97698.63;10367135;28;20032;-55
2023/08/18 20:44:22;;;;;;;14.18;11.32;;;;;;;23.55;64.18;97715.22;10366084;28;20048;-56
2023/08/18 20:49:21;;;;;;;16.45;11.75;;;;;;;23.49;65.02;97711.13;10367269;28;20522;-56
2023/08/18 20:54:20;;;;;;;17.38;11.88;;;;;;;23.41;65.53;97713.28;10366159;28;20040;-56
2023/08/18 20:59:19;;;;;;;17.63;12.93;;;;;;;23.42;65.55;97715.00;10370047;28;20400;-56
2023/08/18 21:04:18;;;;;;;20.13;11.93;;;;;;;23.35;66.44;97710.94;10370319;28;20025;-55
2023/08/18 21:09:17;;;;;;;18.23;11.65;;;;;;;23.27;66.38;97714.00;10361202;28;20067;-55
2023/08/18 21:14:16;;;;;;;15.07;12.38;;;;;;;23.09;67.71;97710.56;10362925;28;20095;-55
2023/08/18 21:19:15;;;;;;;18.50;12.18;;;;;;;22.96;68.33;97717.41;10342679;28;20025;-55
2023/08/18 21:24:14;;;;;;;19.27;12.07;;;;;;;22.66;68.24;97678.31;10364882;28;20140;-55
2023/08/18 21:29:13;;;;;;;20.73;13.77;;;;;;;22.87;68.80;97717.88;10368692;28;20047;-55
2023/08/18 21:34:12;;;;;;;13.93;12.07;;;;;;;22.77;69.23;97713.06;10364129;28;20032;-55
2023/08/18 21:39:12;;;;;;;13.93;11.98;;;;;;;22.65;69.64;97691.63;10340048;28;20067;-55
2023/08/18 21:44:11;;;;;;;14.23;12.18;;;;;;;22.64;69.95;97701.34;10363380;28;20120;-55
2023/08/18 21:49:10;;;;;;;14.43;12.40;;;;;;;22.59;70.03;97713.97;10341168;28;20058;-55
2023/08/18 21:54:09;;;;;;;19.40;13.70;;;;;;;22.49;70.12;97715.38;10357321;28;20029;-55
2023/08/18 21:59:08;;;;;;;15.85;13.48;;;;;;;22.35;71.09;97727.47;10362804;28;20036;-55
2023/08/18 22:04:07;;;;;;;14.65;12.85;;;;;;;22.16;73.41;97731.94;10363487;28;20425;-55
2023/08/18 22:09:06;;;;;;;14.00;12.43;;;;;;;21.94;73.56;97701.25;10359902;28;20142;-55
2023/08/18 22:14:05;;;;;;;16.83;12.98;;;;;;;22.02;74.06;97722.03;10361108;28;20204;-55
2023/08/18 22:19:04;;;;;;;15.55;12.80;;;;;;;21.82;74.54;97712.38;10326389;28;20032;-55
2023/08/18 22:24:03;;;;;;;16.73;12.75;;;;;;;21.92;74.69;97731.28;10361236;28;20519;-55
2023/08/18 22:29:03;;;;;;;15.93;12.45;;;;;;;21.83;74.86;97724.66;10361248;28;20059;-55
2023/08/18 22:34:02;;;;;;;17.13;11.57;;;;;;;21.79;75.25;97733.66;10366156;28;20056;-55
2023/08/18 22:39:00;;;;;;;14.02;12.55;;;;;;;21.73;75.05;97726.88;10363672;28;20037;-55
2023/08/18 22:43:59;;;;;;;13.32;11.80;;;;;;;21.77;74.72;97727.56;10366313;28;20241;-55
2023/08/18 22:48:58;;;;;;;18.27;13.38;;;;;;;21.61;74.42;97703.66;10363017;28;20028;-55
2023/08/18 22:53:57;;;;;;;16.23;12.32;;;;;;;21.65;75.31;97731.66;10353636;28;20023;-55
2023/08/18 22:58:56;;;;;;;18.17;14.27;;;;;;;21.62;75.09;97730.94;10365503;28;20124;-55